sensor_id;sensor_type;location;lat;lon;timestamp;P1;durP1;ratioP1;P2;durP2;ratioP2
69892;SDS011;61212;42.688;22.176;2022-12-07T09:21:02;13.95;;;10.13;;
69892;SDS011;61212;42.688;22.176;2022-12-07T09:23:29;19.48;;;10.52;;
69892;SDS011;61212;42.688;22.176;2022-12-07T09:25:58;17.40;;;10.52;;
69892;SDS011;61212;42.688;22.176;2022-12-07T09:28:24;22.27;;;13.00;;
69892;SDS011;61212;42.688;22.176;2022-12-07T09:30:50;120.50;;;41.90;;
69892;SDS011;61212;42.688;22.176;2022-12-07T09:33:16;65.03;;;25.23;;
69892;SDS011;61212;42.688;22.176;2022-12-07T09:35:49;53.42;;;30.63;;
69892;SDS011;61212;42.688;22.176;2022-12-07T09:38:16;110.90;;;43.60;;
69892;SDS011;61212;42.688;22.176;2022-12-07T09:40:42;104.60;;;40.20;;
69892;SDS011;61212;42.688;22.176;2022-12-07T09:43:26;101.55;;;38.65;;
69892;SDS011;61212;42.688;22.176;2022-12-07T09:45:53;57.95;;;28.85;;
69892;SDS011;61212;42.688;22.176;2022-12-07T09:48:30;32.03;;;19.90;;
69892;SDS011;61212;42.688;22.176;2022-12-07T09:50:57;38.95;;;21.70;;
69892;SDS011;61212;42.688;22.176;2022-12-07T09:55:50;32.72;;;19.25;;
69892;SDS011;61212;42.688;22.176;2022-12-07T09:58:26;54.53;;;32.17;;
69892;SDS011;61212;42.688;22.176;2022-12-07T10:00:57;40.70;;;26.02;;
69892;SDS011;61212;42.688;22.176;2022-12-07T10:03:25;83.13;;;40.72;;
69892;SDS011;61212;42.688;22.176;2022-12-07T10:05:52;57.33;;;32.42;;
69892;SDS011;61212;42.688;22.176;2022-12-07T10:08:18;46.92;;;29.23;;
69892;SDS011;61212;42.688;22.176;2022-12-07T10:10:46;45.72;;;26.65;;
69892;SDS011;61212;42.688;22.176;2022-12-07T10:13:15;37.45;;;21.77;;
69892;SDS011;61212;42.688;22.176;2022-12-07T10:21:16;45.58;;;22.65;;
69892;SDS011;61212;42.688;22.176;2022-12-07T10:24:01;75.68;;;38.28;;
69892;SDS011;61212;42.688;22.176;2022-12-07T10:26:35;29.85;;;16.35;;
69892;SDS011;61212;42.688;22.176;2022-12-07T10:29:13;27.30;;;15.80;;
69892;SDS011;61212;42.688;22.176;2022-12-07T10:31:40;26.58;;;16.25;;
69892;SDS011;61212;42.688;22.176;2022-12-07T10:34:15;29.80;;;18.33;;
69892;SDS011;61212;42.688;22.176;2022-12-07T10:36:46;28.20;;;16.63;;
69892;SDS011;61212;42.688;22.176;2022-12-07T10:39:14;23.50;;;13.30;;
69892;SDS011;61212;42.688;22.176;2022-12-07T10:41:54;23.40;;;14.40;;
69892;SDS011;61212;42.688;22.176;2022-12-07T10:44:22;31.02;;;15.98;;
69892;SDS011;61212;42.688;22.176;2022-12-07T10:46:51;34.67;;;19.70;;
69892;SDS011;61212;42.688;22.176;2022-12-07T10:49:42;30.88;;;15.45;;
69892;SDS011;61212;42.688;22.176;2022-12-07T11:00:19;37.78;;;21.63;;
69892;SDS011;61212;42.688;22.176;2022-12-07T11:05:37;28.25;;;15.90;;
69892;SDS011;61212;42.688;22.176;2022-12-07T11:10:44;30.80;;;14.98;;
69892;SDS011;61212;42.688;22.176;2022-12-07T11:13:20;21.45;;;12.75;;
69892;SDS011;61212;42.688;22.176;2022-12-07T11:28:59;34.15;;;17.05;;
69892;SDS011;61212;42.688;22.176;2022-12-07T12:07:00;28.38;;;18.42;;
69892;SDS011;61212;42.688;22.176;2022-12-07T12:09:39;29.90;;;17.92;;
69892;SDS011;61212;42.688;22.176;2022-12-07T12:20:01;38.60;;;23.98;;
69892;SDS011;61212;42.688;22.176;2022-12-07T12:22:39;44.17;;;28.50;;
69892;SDS011;61212;42.688;22.176;2022-12-07T12:25:07;38.55;;;21.13;;
69892;SDS011;61212;42.688;22.176;2022-12-07T12:27:40;60.28;;;34.80;;
69892;SDS011;61212;42.688;22.176;2022-12-07T12:30:25;48.25;;;29.33;;
69892;SDS011;61212;42.688;22.176;2022-12-07T12:32:51;37.92;;;22.80;;
69892;SDS011;61212;42.688;22.176;2022-12-07T12:35:29;46.42;;;29.60;;
69892;SDS011;61212;42.688;22.176;2022-12-07T12:37:56;43.22;;;27.85;;
69892;SDS011;61212;42.688;22.176;2022-12-07T12:40:42;35.42;;;19.80;;
69892;SDS011;61212;42.688;22.176;2022-12-07T12:46:33;32.67;;;18.88;;
69892;SDS011;61212;42.688;22.176;2022-12-07T12:48:39;39.60;;;17.50;;
69892;SDS011;61212;42.688;22.176;2022-12-07T12:53:51;32.50;;;17.83;;
69892;SDS011;61212;42.688;22.176;2022-12-07T12:58:43;31.05;;;19.60;;
69892;SDS011;61212;42.688;22.176;2022-12-07T13:03:56;26.17;;;15.48;;
69892;SDS011;61212;42.688;22.176;2022-12-07T13:08:53;88.53;;;37.45;;
69892;SDS011;61212;42.688;22.176;2022-12-07T13:11:29;98.65;;;41.20;;
69892;SDS011;61212;42.688;22.176;2022-12-07T13:16:42;23.05;;;12.98;;
69892;SDS011;61212;42.688;22.176;2022-12-07T13:21:58;22.65;;;11.68;;
69892;SDS011;61212;42.688;22.176;2022-12-07T13:24:24;23.45;;;13.20;;
69892;SDS011;61212;42.688;22.176;2022-12-07T13:26:51;20.77;;;13.40;;
69892;SDS011;61212;42.688;22.176;2022-12-07T13:29:21;23.77;;;12.45;;
69892;SDS011;61212;42.688;22.176;2022-12-07T13:31:57;25.50;;;13.85;;
69892;SDS011;61212;42.688;22.176;2022-12-07T13:37:25;30.73;;;19.25;;
69892;SDS011;61212;42.688;22.176;2022-12-07T13:39:59;58.88;;;31.60;;
69892;SDS011;61212;42.688;22.176;2022-12-07T13:42:26;76.82;;;36.20;;
69892;SDS011;61212;42.688;22.176;2022-12-07T13:44:53;35.53;;;22.60;;
69892;SDS011;61212;42.688;22.176;2022-12-07T13:47:26;39.00;;;22.60;;
69892;SDS011;61212;42.688;22.176;2022-12-07T13:49:56;33.20;;;19.63;;
69892;SDS011;61212;42.688;22.176;2022-12-07T13:52:26;41.97;;;25.88;;
69892;SDS011;61212;42.688;22.176;2022-12-07T13:55:00;101.32;;;47.45;;
69892;SDS011;61212;42.688;22.176;2022-12-07T13:57:27;49.08;;;23.55;;
69892;SDS011;61212;42.688;22.176;2022-12-07T13:59:53;38.97;;;21.73;;
69892;SDS011;61212;42.688;22.176;2022-12-07T14:02:32;32.88;;;20.00;;
69892;SDS011;61212;42.688;22.176;2022-12-07T14:10:25;47.38;;;30.73;;
69892;SDS011;61212;42.688;22.176;2022-12-07T14:12:51;76.47;;;39.72;;
69892;SDS011;61212;42.688;22.176;2022-12-07T14:15:22;42.80;;;25.65;;
69892;SDS011;61212;42.688;22.176;2022-12-07T14:17:52;47.85;;;30.77;;
69892;SDS011;61212;42.688;22.176;2022-12-07T14:23:24;35.83;;;19.33;;
69892;SDS011;61212;42.688;22.176;2022-12-07T14:25:52;41.83;;;20.92;;
69892;SDS011;61212;42.688;22.176;2022-12-07T14:28:26;59.30;;;31.05;;
69892;SDS011;61212;42.688;22.176;2022-12-07T14:30:52;65.40;;;34.92;;
69892;SDS011;61212;42.688;22.176;2022-12-07T14:33:18;50.15;;;29.40;;
69892;SDS011;61212;42.688;22.176;2022-12-07T14:35:44;62.92;;;36.42;;
69892;SDS011;61212;42.688;22.176;2022-12-07T14:38:10;60.15;;;34.92;;
69892;SDS011;61212;42.688;22.176;2022-12-07T14:40:36;129.57;;;60.90;;
69892;SDS011;61212;42.688;22.176;2022-12-07T14:43:11;118.25;;;56.35;;
69892;SDS011;61212;42.688;22.176;2022-12-07T14:45:38;114.88;;;53.35;;
69892;SDS011;61212;42.688;22.176;2022-12-07T14:48:07;101.60;;;54.70;;
69892;SDS011;61212;42.688;22.176;2022-12-07T14:50:37;68.57;;;38.72;;
69892;SDS011;61212;42.688;22.176;2022-12-07T14:53:13;57.47;;;32.40;;
69892;SDS011;61212;42.688;22.176;2022-12-07T14:55:40;39.53;;;21.55;;
69892;SDS011;61212;42.688;22.176;2022-12-07T14:58:07;237.07;;;113.25;;
69892;SDS011;61212;42.688;22.176;2022-12-07T15:00:37;68.45;;;42.95;;
69892;SDS011;61212;42.688;22.176;2022-12-07T15:03:04;85.03;;;50.33;;
69892;SDS011;61212;42.688;22.176;2022-12-07T15:05:30;46.20;;;30.50;;
69892;SDS011;61212;42.688;22.176;2022-12-07T15:07:56;30.27;;;18.40;;
69892;SDS011;61212;42.688;22.176;2022-12-07T15:10:26;52.10;;;26.20;;
69892;SDS011;61212;42.688;22.176;2022-12-07T15:13:00;34.33;;;21.08;;
69892;SDS011;61212;42.688;22.176;2022-12-07T15:15:46;33.15;;;18.70;;
69892;SDS011;61212;42.688;22.176;2022-12-07T15:18:12;32.65;;;19.38;;
69892;SDS011;61212;42.688;22.176;2022-12-07T15:20:38;49.15;;;28.40;;
69892;SDS011;61212;42.688;22.176;2022-12-07T15:23:04;63.90;;;37.47;;
69892;SDS011;61212;42.688;22.176;2022-12-07T15:25:31;36.60;;;22.38;;
69892;SDS011;61212;42.688;22.176;2022-12-07T15:27:57;37.67;;;22.70;;
69892;SDS011;61212;42.688;22.176;2022-12-07T15:30:23;46.03;;;29.15;;
69892;SDS011;61212;42.688;22.176;2022-12-07T15:32:49;33.45;;;21.73;;
69892;SDS011;61212;42.688;22.176;2022-12-07T15:35:16;30.25;;;20.77;;
69892;SDS011;61212;42.688;22.176;2022-12-07T15:37:42;44.47;;;28.83;;
69892;SDS011;61212;42.688;22.176;2022-12-07T15:40:08;48.83;;;32.97;;
69892;SDS011;61212;42.688;22.176;2022-12-07T15:42:35;41.97;;;27.55;;
69892;SDS011;61212;42.688;22.176;2022-12-07T15:45:01;56.60;;;32.70;;
69892;SDS011;61212;42.688;22.176;2022-12-07T15:47:34;29.58;;;17.50;;
69892;SDS011;61212;42.688;22.176;2022-12-07T15:50:02;31.58;;;18.00;;
69892;SDS011;61212;42.688;22.176;2022-12-07T15:52:28;64.30;;;37.20;;
69892;SDS011;61212;42.688;22.176;2022-12-07T15:54:54;46.05;;;27.27;;
69892;SDS011;61212;42.688;22.176;2022-12-07T15:57:20;37.53;;;22.33;;
69892;SDS011;61212;42.688;22.176;2022-12-07T15:59:46;33.28;;;19.00;;
69892;SDS011;61212;42.688;22.176;2022-12-07T16:02:13;31.92;;;17.75;;
69892;SDS011;61212;42.688;22.176;2022-12-07T16:04:39;29.08;;;13.23;;
69892;SDS011;61212;42.688;22.176;2022-12-07T16:07:05;39.70;;;22.08;;
69892;SDS011;61212;42.688;22.176;2022-12-07T16:09:31;31.77;;;19.70;;
69892;SDS011;61212;42.688;22.176;2022-12-07T16:11:57;39.85;;;20.77;;
69892;SDS011;61212;42.688;22.176;2022-12-07T16:14:23;31.15;;;18.50;;
69892;SDS011;61212;42.688;22.176;2022-12-07T16:16:50;31.77;;;19.08;;
69892;SDS011;61212;42.688;22.176;2022-12-07T16:19:16;39.30;;;20.80;;
69892;SDS011;61212;42.688;22.176;2022-12-07T16:24:45;72.72;;;41.55;;
69892;SDS011;61212;42.688;22.176;2022-12-07T16:27:11;59.33;;;35.95;;
69892;SDS011;61212;42.688;22.176;2022-12-07T16:29:37;58.65;;;35.97;;
69892;SDS011;61212;42.688;22.176;2022-12-07T16:32:03;57.97;;;34.00;;
69892;SDS011;61212;42.688;22.176;2022-12-07T16:34:29;62.25;;;35.78;;
69892;SDS011;61212;42.688;22.176;2022-12-07T16:36:56;81.90;;;47.85;;
69892;SDS011;61212;42.688;22.176;2022-12-07T16:39:22;75.95;;;42.15;;
69892;SDS011;61212;42.688;22.176;2022-12-07T16:41:49;82.65;;;45.50;;
69892;SDS011;61212;42.688;22.176;2022-12-07T16:44:15;47.60;;;29.17;;
69892;SDS011;61212;42.688;22.176;2022-12-07T16:46:42;51.22;;;31.60;;
69892;SDS011;61212;42.688;22.176;2022-12-07T16:49:12;66.72;;;39.55;;
69892;SDS011;61212;42.688;22.176;2022-12-07T16:51:38;63.38;;;34.33;;
69892;SDS011;61212;42.688;22.176;2022-12-07T16:54:06;71.30;;;41.95;;
69892;SDS011;61212;42.688;22.176;2022-12-07T16:56:32;73.88;;;41.97;;
69892;SDS011;61212;42.688;22.176;2022-12-07T16:58:58;123.60;;;67.32;;
69892;SDS011;61212;42.688;22.176;2022-12-07T17:01:24;136.85;;;79.97;;
69892;SDS011;61212;42.688;22.176;2022-12-07T17:03:53;61.28;;;37.25;;
69892;SDS011;61212;42.688;22.176;2022-12-07T17:06:20;48.47;;;28.25;;
69892;SDS011;61212;42.688;22.176;2022-12-07T17:08:46;52.33;;;29.92;;
69892;SDS011;61212;42.688;22.176;2022-12-07T17:11:14;60.97;;;35.75;;
69892;SDS011;61212;42.688;22.176;2022-12-07T17:13:40;88.82;;;49.33;;
69892;SDS011;61212;42.688;22.176;2022-12-07T17:16:25;149.93;;;76.88;;
69892;SDS011;61212;42.688;22.176;2022-12-07T17:18:51;90.03;;;52.22;;
69892;SDS011;61212;42.688;22.176;2022-12-07T17:21:18;79.38;;;46.00;;
69892;SDS011;61212;42.688;22.176;2022-12-07T17:23:44;98.57;;;46.90;;
69892;SDS011;61212;42.688;22.176;2022-12-07T17:26:11;60.08;;;32.50;;
69892;SDS011;61212;42.688;22.176;2022-12-07T17:28:38;46.95;;;26.83;;
69892;SDS011;61212;42.688;22.176;2022-12-07T17:31:05;56.60;;;31.20;;
69892;SDS011;61212;42.688;22.176;2022-12-07T17:33:32;40.10;;;24.70;;
69892;SDS011;61212;42.688;22.176;2022-12-07T17:35:58;54.40;;;32.60;;
69892;SDS011;61212;42.688;22.176;2022-12-07T17:38:25;61.25;;;35.85;;
69892;SDS011;61212;42.688;22.176;2022-12-07T17:40:51;60.08;;;32.35;;
69892;SDS011;61212;42.688;22.176;2022-12-07T17:43:17;55.50;;;32.47;;
69892;SDS011;61212;42.688;22.176;2022-12-07T17:45:43;86.82;;;47.42;;
69892;SDS011;61212;42.688;22.176;2022-12-07T17:48:09;53.97;;;30.40;;
69892;SDS011;61212;42.688;22.176;2022-12-07T17:50:35;50.35;;;29.52;;
69892;SDS011;61212;42.688;22.176;2022-12-07T17:53:20;48.10;;;29.45;;
69892;SDS011;61212;42.688;22.176;2022-12-07T17:55:46;41.38;;;24.73;;
69892;SDS011;61212;42.688;22.176;2022-12-07T17:58:12;73.97;;;42.88;;
69892;SDS011;61212;42.688;22.176;2022-12-07T18:00:38;87.95;;;48.85;;
69892;SDS011;61212;42.688;22.176;2022-12-07T18:03:05;51.15;;;28.73;;
69892;SDS011;61212;42.688;22.176;2022-12-07T18:05:38;44.15;;;25.90;;
69892;SDS011;61212;42.688;22.176;2022-12-07T18:08:08;38.83;;;20.90;;
69892;SDS011;61212;42.688;22.176;2022-12-07T18:10:34;40.92;;;22.35;;
69892;SDS011;61212;42.688;22.176;2022-12-07T18:13:00;36.63;;;18.85;;
69892;SDS011;61212;42.688;22.176;2022-12-07T18:15:45;34.88;;;19.38;;
69892;SDS011;61212;42.688;22.176;2022-12-07T18:18:11;38.22;;;20.55;;
69892;SDS011;61212;42.688;22.176;2022-12-07T18:20:37;42.80;;;22.73;;
69892;SDS011;61212;42.688;22.176;2022-12-07T18:23:03;51.88;;;30.45;;
69892;SDS011;61212;42.688;22.176;2022-12-07T18:25:29;85.50;;;44.42;;
69892;SDS011;61212;42.688;22.176;2022-12-07T18:27:55;158.98;;;79.43;;
69892;SDS011;61212;42.688;22.176;2022-12-07T18:30:21;173.88;;;92.18;;
69892;SDS011;61212;42.688;22.176;2022-12-07T18:32:47;137.93;;;71.78;;
69892;SDS011;61212;42.688;22.176;2022-12-07T18:35:14;128.50;;;69.22;;
69892;SDS011;61212;42.688;22.176;2022-12-07T18:37:40;119.18;;;71.45;;
69892;SDS011;61212;42.688;22.176;2022-12-07T18:40:06;80.68;;;46.45;;
69892;SDS011;61212;42.688;22.176;2022-12-07T18:42:32;98.72;;;56.00;;
69892;SDS011;61212;42.688;22.176;2022-12-07T18:44:58;105.50;;;54.78;;
69892;SDS011;61212;42.688;22.176;2022-12-07T18:47:25;76.80;;;40.00;;
69892;SDS011;61212;42.688;22.176;2022-12-07T18:49:51;65.00;;;34.70;;
69892;SDS011;61212;42.688;22.176;2022-12-07T18:52:17;40.28;;;24.30;;
69892;SDS011;61212;42.688;22.176;2022-12-07T18:54:43;42.67;;;21.75;;
69892;SDS011;61212;42.688;22.176;2022-12-07T18:57:09;84.82;;;47.35;;
69892;SDS011;61212;42.688;22.176;2022-12-07T18:59:35;86.80;;;47.78;;
69892;SDS011;61212;42.688;22.176;2022-12-07T19:02:10;61.90;;;34.03;;
69892;SDS011;61212;42.688;22.176;2022-12-07T19:04:36;42.88;;;23.92;;
69892;SDS011;61212;42.688;22.176;2022-12-07T19:07:02;37.15;;;20.38;;
69892;SDS011;61212;42.688;22.176;2022-12-07T19:09:28;42.38;;;23.85;;
69892;SDS011;61212;42.688;22.176;2022-12-07T19:11:55;44.47;;;22.40;;
69892;SDS011;61212;42.688;22.176;2022-12-07T19:14:34;42.17;;;24.15;;
69892;SDS011;61212;42.688;22.176;2022-12-07T19:17:05;41.38;;;24.73;;
69892;SDS011;61212;42.688;22.176;2022-12-07T19:19:35;44.13;;;24.05;;
69892;SDS011;61212;42.688;22.176;2022-12-07T19:22:02;36.80;;;24.10;;
69892;SDS011;61212;42.688;22.176;2022-12-07T19:24:28;45.65;;;26.08;;
69892;SDS011;61212;42.688;22.176;2022-12-07T19:26:55;60.28;;;36.22;;
69892;SDS011;61212;42.688;22.176;2022-12-07T19:29:21;50.85;;;30.10;;
69892;SDS011;61212;42.688;22.176;2022-12-07T19:31:47;46.33;;;28.50;;
69892;SDS011;61212;42.688;22.176;2022-12-07T19:34:14;52.38;;;31.42;;
69892;SDS011;61212;42.688;22.176;2022-12-07T19:36:41;37.00;;;22.33;;
69892;SDS011;61212;42.688;22.176;2022-12-07T19:39:07;33.13;;;17.85;;
69892;SDS011;61212;42.688;22.176;2022-12-07T19:44:19;32.00;;;19.45;;
69892;SDS011;61212;42.688;22.176;2022-12-07T19:46:47;48.35;;;26.83;;
69892;SDS011;61212;42.688;22.176;2022-12-07T19:49:15;32.75;;;18.73;;
69892;SDS011;61212;42.688;22.176;2022-12-07T19:51:42;33.47;;;18.65;;
69892;SDS011;61212;42.688;22.176;2022-12-07T19:54:09;29.27;;;18.35;;
69892;SDS011;61212;42.688;22.176;2022-12-07T19:56:36;33.95;;;18.58;;
69892;SDS011;61212;42.688;22.176;2022-12-07T19:59:02;22.55;;;13.13;;
69892;SDS011;61212;42.688;22.176;2022-12-07T20:01:29;26.85;;;13.25;;
69892;SDS011;61212;42.688;22.176;2022-12-07T20:03:55;25.10;;;13.30;;
69892;SDS011;61212;42.688;22.176;2022-12-07T20:06:22;19.17;;;12.10;;
69892;SDS011;61212;42.688;22.176;2022-12-07T20:08:48;24.83;;;12.80;;
69892;SDS011;61212;42.688;22.176;2022-12-07T20:11:14;25.60;;;13.82;;
69892;SDS011;61212;42.688;22.176;2022-12-07T20:13:59;37.75;;;20.27;;
69892;SDS011;61212;42.688;22.176;2022-12-07T20:16:26;62.10;;;30.83;;
69892;SDS011;61212;42.688;22.176;2022-12-07T20:18:52;65.55;;;35.15;;
69892;SDS011;61212;42.688;22.176;2022-12-07T20:21:18;52.58;;;29.13;;
69892;SDS011;61212;42.688;22.176;2022-12-07T20:23:44;54.88;;;33.55;;
69892;SDS011;61212;42.688;22.176;2022-12-07T20:26:11;58.30;;;34.25;;
69892;SDS011;61212;42.688;22.176;2022-12-07T20:28:38;67.18;;;35.95;;
69892;SDS011;61212;42.688;22.176;2022-12-07T20:31:04;86.18;;;47.58;;
69892;SDS011;61212;42.688;22.176;2022-12-07T20:33:30;93.88;;;47.70;;
69892;SDS011;61212;42.688;22.176;2022-12-07T20:36:00;78.40;;;44.65;;
69892;SDS011;61212;42.688;22.176;2022-12-07T20:38:27;72.35;;;41.85;;
69892;SDS011;61212;42.688;22.176;2022-12-07T20:40:57;68.15;;;39.38;;
69892;SDS011;61212;42.688;22.176;2022-12-07T20:43:23;74.60;;;43.28;;
69892;SDS011;61212;42.688;22.176;2022-12-07T20:45:49;75.68;;;41.22;;
69892;SDS011;61212;42.688;22.176;2022-12-07T20:48:15;72.35;;;37.47;;
69892;SDS011;61212;42.688;22.176;2022-12-07T20:50:42;112.85;;;55.42;;
69892;SDS011;61212;42.688;22.176;2022-12-07T20:53:08;88.07;;;48.60;;
69892;SDS011;61212;42.688;22.176;2022-12-07T20:55:34;92.68;;;47.72;;
69892;SDS011;61212;42.688;22.176;2022-12-07T20:58:00;82.90;;;42.42;;
69892;SDS011;61212;42.688;22.176;2022-12-07T21:00:26;46.78;;;26.92;;
69892;SDS011;61212;42.688;22.176;2022-12-07T21:02:53;37.58;;;20.00;;
69892;SDS011;61212;42.688;22.176;2022-12-07T21:05:21;36.72;;;20.33;;
69892;SDS011;61212;42.688;22.176;2022-12-07T21:07:47;26.65;;;14.75;;
69892;SDS011;61212;42.688;22.176;2022-12-07T21:10:13;32.33;;;18.15;;
69892;SDS011;61212;42.688;22.176;2022-12-07T21:12:39;30.23;;;16.08;;
69892;SDS011;61212;42.688;22.176;2022-12-07T21:15:06;32.55;;;17.63;;
69892;SDS011;61212;42.688;22.176;2022-12-07T21:17:32;30.33;;;16.55;;
69892;SDS011;61212;42.688;22.176;2022-12-07T21:19:58;31.25;;;19.58;;
69892;SDS011;61212;42.688;22.176;2022-12-07T21:22:27;44.10;;;24.48;;
69892;SDS011;61212;42.688;22.176;2022-12-07T21:24:54;47.65;;;24.85;;
69892;SDS011;61212;42.688;22.176;2022-12-07T21:27:20;34.55;;;21.63;;
69892;SDS011;61212;42.688;22.176;2022-12-07T21:29:46;45.85;;;23.73;;
69892;SDS011;61212;42.688;22.176;2022-12-07T21:32:12;32.92;;;17.20;;
69892;SDS011;61212;42.688;22.176;2022-12-07T21:34:38;31.13;;;16.15;;
69892;SDS011;61212;42.688;22.176;2022-12-07T21:37:04;35.05;;;18.95;;
69892;SDS011;61212;42.688;22.176;2022-12-07T21:39:31;27.00;;;13.60;;
69892;SDS011;61212;42.688;22.176;2022-12-07T21:41:57;30.92;;;14.20;;
69892;SDS011;61212;42.688;22.176;2022-12-07T21:44:23;30.23;;;13.88;;
69892;SDS011;61212;42.688;22.176;2022-12-07T21:46:49;33.30;;;14.05;;
69892;SDS011;61212;42.688;22.176;2022-12-07T21:49:15;19.48;;;11.23;;
69892;SDS011;61212;42.688;22.176;2022-12-07T21:51:41;24.08;;;12.02;;
69892;SDS011;61212;42.688;22.176;2022-12-07T21:54:09;26.52;;;11.70;;
69892;SDS011;61212;42.688;22.176;2022-12-07T21:56:39;29.98;;;15.57;;
69892;SDS011;61212;42.688;22.176;2022-12-07T21:59:07;19.90;;;11.25;;
69892;SDS011;61212;42.688;22.176;2022-12-07T22:01:34;19.13;;;10.52;;
69892;SDS011;61212;42.688;22.176;2022-12-07T22:04:09;21.55;;;12.63;;
69892;SDS011;61212;42.688;22.176;2022-12-07T22:06:36;34.58;;;18.52;;
69892;SDS011;61212;42.688;22.176;2022-12-07T22:09:03;48.60;;;27.52;;
69892;SDS011;61212;42.688;22.176;2022-12-07T22:11:31;63.65;;;31.75;;
69892;SDS011;61212;42.688;22.176;2022-12-07T22:13:57;67.13;;;35.08;;
69892;SDS011;61212;42.688;22.176;2022-12-07T22:16:41;57.83;;;28.05;;
69892;SDS011;61212;42.688;22.176;2022-12-07T22:19:07;47.78;;;27.80;;
69892;SDS011;61212;42.688;22.176;2022-12-07T22:21:34;48.90;;;29.48;;
69892;SDS011;61212;42.688;22.176;2022-12-07T22:24:00;52.42;;;29.75;;
69892;SDS011;61212;42.688;22.176;2022-12-07T22:26:27;53.92;;;30.75;;
69892;SDS011;61212;42.688;22.176;2022-12-07T22:28:53;55.70;;;31.30;;
69892;SDS011;61212;42.688;22.176;2022-12-07T22:31:19;53.90;;;28.77;;
69892;SDS011;61212;42.688;22.176;2022-12-07T22:33:46;53.75;;;28.85;;
69892;SDS011;61212;42.688;22.176;2022-12-07T22:36:12;47.35;;;28.58;;
69892;SDS011;61212;42.688;22.176;2022-12-07T22:38:38;44.03;;;25.52;;
69892;SDS011;61212;42.688;22.176;2022-12-07T22:41:11;43.90;;;25.38;;
69892;SDS011;61212;42.688;22.176;2022-12-07T22:43:38;50.47;;;25.80;;
69892;SDS011;61212;42.688;22.176;2022-12-07T22:46:04;41.60;;;23.23;;
69892;SDS011;61212;42.688;22.176;2022-12-07T22:48:30;78.72;;;45.17;;
69892;SDS011;61212;42.688;22.176;2022-12-07T22:50:56;90.90;;;51.58;;
69892;SDS011;61212;42.688;22.176;2022-12-07T22:53:23;98.38;;;48.40;;
69892;SDS011;61212;42.688;22.176;2022-12-07T22:55:49;84.50;;;44.60;;
69892;SDS011;61212;42.688;22.176;2022-12-07T22:58:16;83.10;;;40.90;;
69892;SDS011;61212;42.688;22.176;2022-12-07T23:00:42;72.35;;;40.00;;
69892;SDS011;61212;42.688;22.176;2022-12-07T23:03:09;53.25;;;30.33;;
69892;SDS011;61212;42.688;22.176;2022-12-07T23:05:42;59.28;;;32.42;;
69892;SDS011;61212;42.688;22.176;2022-12-07T23:08:08;59.65;;;30.67;;
69892;SDS011;61212;42.688;22.176;2022-12-07T23:10:34;58.28;;;31.38;;
69892;SDS011;61212;42.688;22.176;2022-12-07T23:13:00;53.65;;;31.40;;
69892;SDS011;61212;42.688;22.176;2022-12-07T23:15:45;61.10;;;32.97;;
69892;SDS011;61212;42.688;22.176;2022-12-07T23:18:11;52.75;;;29.15;;
69892;SDS011;61212;42.688;22.176;2022-12-07T23:20:37;59.60;;;31.63;;
69892;SDS011;61212;42.688;22.176;2022-12-07T23:23:03;58.03;;;32.67;;
69892;SDS011;61212;42.688;22.176;2022-12-07T23:25:31;53.67;;;30.15;;
69892;SDS011;61212;42.688;22.176;2022-12-07T23:27:57;25.65;;;14.02;;
69892;SDS011;61212;42.688;22.176;2022-12-07T23:30:23;19.88;;;12.57;;
69892;SDS011;61212;42.688;22.176;2022-12-07T23:32:49;29.60;;;13.70;;
69892;SDS011;61212;42.688;22.176;2022-12-07T23:35:15;36.33;;;20.67;;
69892;SDS011;61212;42.688;22.176;2022-12-07T23:37:41;56.75;;;29.63;;
69892;SDS011;61212;42.688;22.176;2022-12-07T23:40:10;58.13;;;32.53;;
69892;SDS011;61212;42.688;22.176;2022-12-07T23:42:37;134.05;;;62.08;;
69892;SDS011;61212;42.688;22.176;2022-12-07T23:45:03;74.10;;;39.13;;
69892;SDS011;61212;42.688;22.176;2022-12-07T23:47:29;63.55;;;35.28;;
69892;SDS011;61212;42.688;22.176;2022-12-07T23:49:55;125.22;;;62.28;;
69892;SDS011;61212;42.688;22.176;2022-12-07T23:52:21;61.25;;;31.65;;
69892;SDS011;61212;42.688;22.176;2022-12-07T23:54:47;50.50;;;26.38;;
69892;SDS011;61212;42.688;22.176;2022-12-07T23:57:13;60.38;;;29.92;;
69892;SDS011;61212;42.688;22.176;2022-12-07T23:59:39;48.92;;;25.45;;
